sensor_id;sensor_type;location;lat;lon;timestamp;P1;durP1;ratioP1;P2;durP2;ratioP2
44446;SDS011;30152;52.066;5.358;2023-06-22T06:23:32;38.33;;;28.17;;
44446;SDS011;30152;52.066;5.358;2023-06-22T06:25:57;37.83;;;25.33;;
44446;SDS011;30152;52.066;5.358;2023-06-22T06:28:24;34.72;;;24.13;;
44446;SDS011;30152;52.066;5.358;2023-06-22T06:30:50;32.22;;;22.67;;
44446;SDS011;30152;52.066;5.358;2023-06-22T06:33:16;30.08;;;19.85;;
44446;SDS011;30152;52.066;5.358;2023-06-22T06:35:42;31.02;;;20.45;;
44446;SDS011;30152;52.066;5.358;2023-06-22T06:38:07;28.13;;;19.35;;
44446;SDS011;30152;52.066;5.358;2023-06-22T06:40:33;27.23;;;19.35;;
44446;SDS011;30152;52.066;5.358;2023-06-22T06:42:58;26.92;;;18.70;;
44446;SDS011;30152;52.066;5.358;2023-06-22T06:45:24;25.23;;;17.55;;
44446;SDS011;30152;52.066;5.358;2023-06-22T06:47:50;28.52;;;19.05;;
44446;SDS011;30152;52.066;5.358;2023-06-22T06:50:17;28.10;;;19.55;;
44446;SDS011;30152;52.066;5.358;2023-06-22T06:52:43;30.48;;;20.63;;
44446;SDS011;30152;52.066;5.358;2023-06-22T06:55:09;29.02;;;21.70;;
44446;SDS011;30152;52.066;5.358;2023-06-22T06:57:37;31.48;;;21.05;;
44446;SDS011;30152;52.066;5.358;2023-06-22T07:00:04;29.85;;;22.67;;
44446;SDS011;30152;52.066;5.358;2023-06-22T07:02:38;28.45;;;21.10;;
44446;SDS011;30152;52.066;5.358;2023-06-22T07:05:05;31.13;;;22.95;;
44446;SDS011;30152;52.066;5.358;2023-06-22T07:07:31;34.90;;;25.15;;
44446;SDS011;30152;52.066;5.358;2023-06-22T07:09:57;31.77;;;23.45;;
44446;SDS011;30152;52.066;5.358;2023-06-22T07:12:22;33.92;;;24.58;;
44446;SDS011;30152;52.066;5.358;2023-06-22T07:14:48;37.65;;;24.50;;
44446;SDS011;30152;52.066;5.358;2023-06-22T07:17:13;34.50;;;25.02;;
44446;SDS011;30152;52.066;5.358;2023-06-22T07:19:39;34.95;;;24.48;;
44446;SDS011;30152;52.066;5.358;2023-06-22T07:22:05;34.22;;;23.38;;
44446;SDS011;30152;52.066;5.358;2023-06-22T07:24:30;34.03;;;22.80;;
44446;SDS011;30152;52.066;5.358;2023-06-22T07:26:57;32.22;;;21.85;;
44446;SDS011;30152;52.066;5.358;2023-06-22T07:29:24;28.38;;;21.15;;
44446;SDS011;30152;52.066;5.358;2023-06-22T07:31:50;30.00;;;20.67;;
44446;SDS011;30152;52.066;5.358;2023-06-22T07:34:21;26.63;;;20.27;;
44446;SDS011;30152;52.066;5.358;2023-06-22T07:36:46;28.65;;;19.48;;
44446;SDS011;30152;52.066;5.358;2023-06-22T07:39:12;25.58;;;18.40;;
44446;SDS011;30152;52.066;5.358;2023-06-22T07:41:38;25.88;;;18.27;;
44446;SDS011;30152;52.066;5.358;2023-06-22T07:44:05;27.23;;;18.48;;
44446;SDS011;30152;52.066;5.358;2023-06-22T07:46:31;27.58;;;18.27;;
44446;SDS011;30152;52.066;5.358;2023-06-22T07:48:57;25.73;;;17.90;;
44446;SDS011;30152;52.066;5.358;2023-06-22T07:51:23;25.20;;;17.63;;
44446;SDS011;30152;52.066;5.358;2023-06-22T07:53:49;24.50;;;18.40;;
44446;SDS011;30152;52.066;5.358;2023-06-22T07:56:14;25.48;;;16.65;;
44446;SDS011;30152;52.066;5.358;2023-06-22T07:58:44;22.95;;;16.73;;
44446;SDS011;30152;52.066;5.358;2023-06-22T08:01:15;23.23;;;15.60;;
44446;SDS011;30152;52.066;5.358;2023-06-22T08:03:41;23.45;;;15.60;;
44446;SDS011;30152;52.066;5.358;2023-06-22T08:06:08;23.00;;;16.15;;
44446;SDS011;30152;52.066;5.358;2023-06-22T08:08:34;23.35;;;15.88;;
44446;SDS011;30152;52.066;5.358;2023-06-22T08:11:00;23.15;;;16.48;;
44446;SDS011;30152;52.066;5.358;2023-06-22T08:13:26;23.52;;;14.82;;
44446;SDS011;30152;52.066;5.358;2023-06-22T08:15:51;21.73;;;14.10;;
44446;SDS011;30152;52.066;5.358;2023-06-22T08:18:17;18.02;;;12.60;;
44446;SDS011;30152;52.066;5.358;2023-06-22T08:20:42;20.65;;;12.90;;
44446;SDS011;30152;52.066;5.358;2023-06-22T08:23:08;21.42;;;14.23;;
44446;SDS011;30152;52.066;5.358;2023-06-22T08:25:34;17.40;;;12.57;;
44446;SDS011;30152;52.066;5.358;2023-06-22T08:28:00;22.25;;;14.18;;
44446;SDS011;30152;52.066;5.358;2023-06-22T08:30:27;18.27;;;11.57;;
44446;SDS011;30152;52.066;5.358;2023-06-22T08:32:53;18.73;;;11.45;;
44446;SDS011;30152;52.066;5.358;2023-06-22T08:35:20;20.38;;;13.45;;
44446;SDS011;30152;52.066;5.358;2023-06-22T08:37:47;20.92;;;12.50;;
44446;SDS011;30152;52.066;5.358;2023-06-22T08:40:17;19.75;;;11.60;;
44446;SDS011;30152;52.066;5.358;2023-06-22T08:42:44;17.63;;;10.38;;
44446;SDS011;30152;52.066;5.358;2023-06-22T08:45:10;15.07;;;9.55;;
44446;SDS011;30152;52.066;5.358;2023-06-22T08:47:36;14.18;;;9.57;;
44446;SDS011;30152;52.066;5.358;2023-06-22T08:50:02;15.00;;;9.10;;
44446;SDS011;30152;52.066;5.358;2023-06-22T08:52:30;14.38;;;8.13;;
44446;SDS011;30152;52.066;5.358;2023-06-22T08:54:56;18.42;;;9.60;;
44446;SDS011;30152;52.066;5.358;2023-06-22T08:57:23;14.93;;;10.65;;
44446;SDS011;30152;52.066;5.358;2023-06-22T08:59:48;16.15;;;9.40;;
44446;SDS011;30152;52.066;5.358;2023-06-22T09:02:17;15.93;;;9.00;;
44446;SDS011;30152;52.066;5.358;2023-06-22T09:04:42;16.60;;;11.02;;
44446;SDS011;30152;52.066;5.358;2023-06-22T09:07:08;17.70;;;10.85;;
44446;SDS011;30152;52.066;5.358;2023-06-22T09:09:33;16.13;;;10.65;;
44446;SDS011;30152;52.066;5.358;2023-06-22T09:11:59;17.02;;;10.88;;
44446;SDS011;30152;52.066;5.358;2023-06-22T09:14:24;18.05;;;10.70;;
44446;SDS011;30152;52.066;5.358;2023-06-22T09:16:50;17.73;;;10.20;;
44446;SDS011;30152;52.066;5.358;2023-06-22T09:19:15;18.10;;;10.63;;
44446;SDS011;30152;52.066;5.358;2023-06-22T09:21:41;15.15;;;9.02;;
44446;SDS011;30152;52.066;5.358;2023-06-22T09:24:06;13.32;;;7.93;;
44446;SDS011;30152;52.066;5.358;2023-06-22T09:26:33;11.63;;;7.55;;
44446;SDS011;30152;52.066;5.358;2023-06-22T09:28:58;14.43;;;7.50;;
44446;SDS011;30152;52.066;5.358;2023-06-22T09:31:24;12.38;;;6.45;;
44446;SDS011;30152;52.066;5.358;2023-06-22T09:33:55;12.43;;;7.40;;
44446;SDS011;30152;52.066;5.358;2023-06-22T09:36:20;13.38;;;7.55;;
44446;SDS011;30152;52.066;5.358;2023-06-22T09:38:47;12.20;;;7.45;;
44446;SDS011;30152;52.066;5.358;2023-06-22T09:41:13;17.13;;;8.30;;
44446;SDS011;30152;52.066;5.358;2023-06-22T09:43:38;12.25;;;7.28;;
44446;SDS011;30152;52.066;5.358;2023-06-22T09:46:04;13.90;;;7.80;;
44446;SDS011;30152;52.066;5.358;2023-06-22T09:48:29;9.98;;;6.82;;
44446;SDS011;30152;52.066;5.358;2023-06-22T09:50:55;13.57;;;8.15;;
44446;SDS011;30152;52.066;5.358;2023-06-22T09:53:21;12.32;;;6.82;;
44446;SDS011;30152;52.066;5.358;2023-06-22T09:55:47;11.77;;;7.07;;
44446;SDS011;30152;52.066;5.358;2023-06-22T09:58:12;13.00;;;7.57;;
44446;SDS011;30152;52.066;5.358;2023-06-22T10:00:38;12.57;;;7.60;;
44446;SDS011;30152;52.066;5.358;2023-06-22T10:03:03;13.45;;;7.10;;
44446;SDS011;30152;52.066;5.358;2023-06-22T10:05:29;12.70;;;7.40;;
44446;SDS011;30152;52.066;5.358;2023-06-22T10:07:54;11.27;;;6.75;;
44446;SDS011;30152;52.066;5.358;2023-06-22T10:10:20;14.40;;;7.55;;
44446;SDS011;30152;52.066;5.358;2023-06-22T10:12:46;12.10;;;6.78;;
44446;SDS011;30152;52.066;5.358;2023-06-22T10:15:13;13.13;;;7.25;;
44446;SDS011;30152;52.066;5.358;2023-06-22T10:17:39;12.38;;;5.88;;
44446;SDS011;30152;52.066;5.358;2023-06-22T10:20:08;9.25;;;5.47;;
44446;SDS011;30152;52.066;5.358;2023-06-22T10:22:40;10.32;;;5.25;;
44446;SDS011;30152;52.066;5.358;2023-06-22T10:25:07;10.10;;;6.18;;
44446;SDS011;30152;52.066;5.358;2023-06-22T10:27:33;12.80;;;5.82;;
44446;SDS011;30152;52.066;5.358;2023-06-22T10:29:58;10.82;;;6.38;;
44446;SDS011;30152;52.066;5.358;2023-06-22T10:32:24;10.88;;;6.38;;
44446;SDS011;30152;52.066;5.358;2023-06-22T10:34:49;10.95;;;5.32;;
44446;SDS011;30152;52.066;5.358;2023-06-22T10:37:15;9.45;;;5.40;;
44446;SDS011;30152;52.066;5.358;2023-06-22T10:39:41;9.65;;;6.05;;
44446;SDS011;30152;52.066;5.358;2023-06-22T10:42:06;9.60;;;5.15;;
44446;SDS011;30152;52.066;5.358;2023-06-22T10:44:32;9.68;;;4.80;;
44446;SDS011;30152;52.066;5.358;2023-06-22T10:46:57;8.68;;;4.68;;
44446;SDS011;30152;52.066;5.358;2023-06-22T10:49:23;11.40;;;5.15;;
44446;SDS011;30152;52.066;5.358;2023-06-22T10:51:48;10.25;;;4.88;;
44446;SDS011;30152;52.066;5.358;2023-06-22T10:54:14;9.32;;;4.88;;
44446;SDS011;30152;52.066;5.358;2023-06-22T10:56:42;10.13;;;4.88;;
44446;SDS011;30152;52.066;5.358;2023-06-22T10:59:07;9.52;;;4.47;;
44446;SDS011;30152;52.066;5.358;2023-06-22T11:01:33;6.95;;;3.97;;
44446;SDS011;30152;52.066;5.358;2023-06-22T11:03:58;9.30;;;4.40;;
44446;SDS011;30152;52.066;5.358;2023-06-22T11:06:24;8.68;;;4.35;;
44446;SDS011;30152;52.066;5.358;2023-06-22T11:08:49;8.15;;;4.15;;
44446;SDS011;30152;52.066;5.358;2023-06-22T11:11:15;10.68;;;5.68;;
44446;SDS011;30152;52.066;5.358;2023-06-22T11:13:42;9.85;;;4.20;;
44446;SDS011;30152;52.066;5.358;2023-06-22T11:16:08;9.40;;;5.70;;
44446;SDS011;30152;52.066;5.358;2023-06-22T11:18:35;11.68;;;4.93;;
44446;SDS011;30152;52.066;5.358;2023-06-22T11:21:00;9.77;;;5.15;;
44446;SDS011;30152;52.066;5.358;2023-06-22T11:23:26;8.98;;;5.18;;
44446;SDS011;30152;52.066;5.358;2023-06-22T11:25:52;11.57;;;5.82;;
44446;SDS011;30152;52.066;5.358;2023-06-22T11:28:18;9.18;;;4.88;;
44446;SDS011;30152;52.066;5.358;2023-06-22T11:30:44;10.98;;;4.50;;
44446;SDS011;30152;52.066;5.358;2023-06-22T11:33:09;8.93;;;4.53;;
44446;SDS011;30152;52.066;5.358;2023-06-22T11:35:35;10.07;;;5.40;;
44446;SDS011;30152;52.066;5.358;2023-06-22T11:38:00;9.95;;;4.28;;
44446;SDS011;30152;52.066;5.358;2023-06-22T11:40:26;10.18;;;5.63;;
44446;SDS011;30152;52.066;5.358;2023-06-22T11:42:51;8.65;;;5.18;;
44446;SDS011;30152;52.066;5.358;2023-06-22T11:45:17;13.02;;;5.32;;
44446;SDS011;30152;52.066;5.358;2023-06-22T11:47:43;9.27;;;5.38;;
44446;SDS011;30152;52.066;5.358;2023-06-22T11:50:09;9.88;;;5.03;;
44446;SDS011;30152;52.066;5.358;2023-06-22T11:52:35;10.88;;;5.90;;
44446;SDS011;30152;52.066;5.358;2023-06-22T11:55:01;8.88;;;4.95;;
44446;SDS011;30152;52.066;5.358;2023-06-22T11:57:28;9.77;;;5.25;;
44446;SDS011;30152;52.066;5.358;2023-06-22T11:59:54;12.82;;;6.35;;
44446;SDS011;30152;52.066;5.358;2023-06-22T12:02:20;11.40;;;5.63;;
44446;SDS011;30152;52.066;5.358;2023-06-22T12:04:45;11.55;;;6.78;;
44446;SDS011;30152;52.066;5.358;2023-06-22T12:07:11;9.70;;;5.45;;
44446;SDS011;30152;52.066;5.358;2023-06-22T12:09:36;14.45;;;6.45;;
44446;SDS011;30152;52.066;5.358;2023-06-22T12:12:02;10.82;;;5.88;;
44446;SDS011;30152;52.066;5.358;2023-06-22T12:14:28;13.40;;;7.10;;
44446;SDS011;30152;52.066;5.358;2023-06-22T12:16:53;14.07;;;7.10;;
44446;SDS011;30152;52.066;5.358;2023-06-22T12:19:19;11.43;;;5.78;;
44446;SDS011;30152;52.066;5.358;2023-06-22T12:21:45;10.93;;;6.43;;
44446;SDS011;30152;52.066;5.358;2023-06-22T12:24:11;12.05;;;7.00;;
44446;SDS011;30152;52.066;5.358;2023-06-22T12:26:36;9.77;;;6.78;;
44446;SDS011;30152;52.066;5.358;2023-06-22T12:29:02;12.75;;;7.45;;
44446;SDS011;30152;52.066;5.358;2023-06-22T12:31:27;14.23;;;7.28;;
44446;SDS011;30152;52.066;5.358;2023-06-22T12:33:53;13.27;;;7.55;;
44446;SDS011;30152;52.066;5.358;2023-06-22T12:36:18;15.02;;;7.95;;
44446;SDS011;30152;52.066;5.358;2023-06-22T12:38:44;16.40;;;8.00;;
44446;SDS011;30152;52.066;5.358;2023-06-22T12:41:10;16.80;;;8.20;;
44446;SDS011;30152;52.066;5.358;2023-06-22T12:43:35;15.13;;;10.10;;
44446;SDS011;30152;52.066;5.358;2023-06-22T12:46:01;14.27;;;10.02;;
44446;SDS011;30152;52.066;5.358;2023-06-22T12:48:27;14.93;;;10.23;;
44446;SDS011;30152;52.066;5.358;2023-06-22T12:50:52;14.73;;;9.70;;
44446;SDS011;30152;52.066;5.358;2023-06-22T12:53:18;14.93;;;10.15;;
44446;SDS011;30152;52.066;5.358;2023-06-22T12:55:44;15.02;;;10.00;;
44446;SDS011;30152;52.066;5.358;2023-06-22T12:58:09;15.93;;;11.38;;
44446;SDS011;30152;52.066;5.358;2023-06-22T13:00:35;15.15;;;11.40;;
44446;SDS011;30152;52.066;5.358;2023-06-22T13:03:00;17.52;;;12.07;;
44446;SDS011;30152;52.066;5.358;2023-06-22T13:05:26;19.05;;;12.57;;
44446;SDS011;30152;52.066;5.358;2023-06-22T13:07:51;21.35;;;12.82;;
44446;SDS011;30152;52.066;5.358;2023-06-22T13:10:17;17.40;;;13.82;;
44446;SDS011;30152;52.066;5.358;2023-06-22T13:12:43;22.52;;;15.07;;
44446;SDS011;30152;52.066;5.358;2023-06-22T13:15:08;18.92;;;14.27;;
44446;SDS011;30152;52.066;5.358;2023-06-22T13:17:34;18.33;;;13.57;;
44446;SDS011;30152;52.066;5.358;2023-06-22T13:19:59;20.02;;;15.15;;
44446;SDS011;30152;52.066;5.358;2023-06-22T13:22:34;26.85;;;17.38;;
44446;SDS011;30152;52.066;5.358;2023-06-22T13:25:08;23.08;;;16.10;;
44446;SDS011;30152;52.066;5.358;2023-06-22T13:27:37;22.85;;;16.85;;
44446;SDS011;30152;52.066;5.358;2023-06-22T13:30:06;26.02;;;17.48;;
44446;SDS011;30152;52.066;5.358;2023-06-22T13:32:32;24.15;;;17.58;;
44446;SDS011;30152;52.066;5.358;2023-06-22T13:34:57;24.13;;;17.42;;
44446;SDS011;30152;52.066;5.358;2023-06-22T13:37:23;25.75;;;18.17;;
44446;SDS011;30152;52.066;5.358;2023-06-22T13:39:48;25.85;;;19.13;;
44446;SDS011;30152;52.066;5.358;2023-06-22T13:42:14;27.77;;;20.88;;
44446;SDS011;30152;52.066;5.358;2023-06-22T13:44:39;29.08;;;21.27;;
44446;SDS011;30152;52.066;5.358;2023-06-22T13:47:05;26.48;;;19.83;;
44446;SDS011;30152;52.066;5.358;2023-06-22T13:49:31;23.90;;;18.75;;
44446;SDS011;30152;52.066;5.358;2023-06-22T13:51:57;29.33;;;21.30;;
44446;SDS011;30152;52.066;5.358;2023-06-22T13:54:22;27.08;;;20.65;;
44446;SDS011;30152;52.066;5.358;2023-06-22T13:56:48;26.05;;;21.50;;
44446;SDS011;30152;52.066;5.358;2023-06-22T13:59:13;27.45;;;19.83;;
44446;SDS011;30152;52.066;5.358;2023-06-22T14:01:39;28.58;;;21.77;;
44446;SDS011;30152;52.066;5.358;2023-06-22T14:04:06;26.40;;;21.33;;
44446;SDS011;30152;52.066;5.358;2023-06-22T14:06:31;28.35;;;20.42;;
44446;SDS011;30152;52.066;5.358;2023-06-22T14:08:57;29.23;;;22.73;;
44446;SDS011;30152;52.066;5.358;2023-06-22T14:11:22;29.67;;;23.10;;
44446;SDS011;30152;52.066;5.358;2023-06-22T14:13:48;33.00;;;24.58;;
44446;SDS011;30152;52.066;5.358;2023-06-22T14:16:13;30.17;;;25.27;;
44446;SDS011;30152;52.066;5.358;2023-06-22T14:18:39;34.72;;;23.90;;
44446;SDS011;30152;52.066;5.358;2023-06-22T14:21:04;33.60;;;24.48;;
44446;SDS011;30152;52.066;5.358;2023-06-22T14:23:30;31.40;;;22.63;;
44446;SDS011;30152;52.066;5.358;2023-06-22T14:25:55;26.08;;;21.88;;
44446;SDS011;30152;52.066;5.358;2023-06-22T14:28:21;31.10;;;24.15;;
44446;SDS011;30152;52.066;5.358;2023-06-22T14:30:47;30.60;;;23.52;;
44446;SDS011;30152;52.066;5.358;2023-06-22T14:33:12;28.15;;;23.67;;
44446;SDS011;30152;52.066;5.358;2023-06-22T14:35:38;28.20;;;21.92;;
44446;SDS011;30152;52.066;5.358;2023-06-22T14:38:03;29.75;;;21.75;;
44446;SDS011;30152;52.066;5.358;2023-06-22T14:40:29;30.23;;;22.00;;
44446;SDS011;30152;52.066;5.358;2023-06-22T14:42:54;31.65;;;22.23;;
44446;SDS011;30152;52.066;5.358;2023-06-22T14:45:21;27.77;;;21.63;;
44446;SDS011;30152;52.066;5.358;2023-06-22T14:47:48;30.00;;;23.35;;
44446;SDS011;30152;52.066;5.358;2023-06-22T14:50:13;31.08;;;22.25;;
44446;SDS011;30152;52.066;5.358;2023-06-22T14:52:39;29.02;;;22.10;;
44446;SDS011;30152;52.066;5.358;2023-06-22T14:55:05;29.50;;;22.65;;
44446;SDS011;30152;52.066;5.358;2023-06-22T14:57:30;29.63;;;21.90;;
44446;SDS011;30152;52.066;5.358;2023-06-22T14:59:56;28.98;;;22.67;;
44446;SDS011;30152;52.066;5.358;2023-06-22T15:02:22;23.00;;;18.67;;
44446;SDS011;30152;52.066;5.358;2023-06-22T15:04:47;28.63;;;20.83;;
44446;SDS011;30152;52.066;5.358;2023-06-22T15:07:14;24.92;;;18.83;;
44446;SDS011;30152;52.066;5.358;2023-06-22T15:09:39;29.05;;;19.25;;
44446;SDS011;30152;52.066;5.358;2023-06-22T15:12:07;29.90;;;20.85;;
44446;SDS011;30152;52.066;5.358;2023-06-22T15:14:36;24.35;;;19.73;;
44446;SDS011;30152;52.066;5.358;2023-06-22T15:17:03;28.42;;;19.92;;
44446;SDS011;30152;52.066;5.358;2023-06-22T15:19:29;30.42;;;19.17;;
44446;SDS011;30152;52.066;5.358;2023-06-22T15:21:54;25.60;;;18.65;;
44446;SDS011;30152;52.066;5.358;2023-06-22T15:24:20;24.95;;;18.40;;
44446;SDS011;30152;52.066;5.358;2023-06-22T15:26:45;27.33;;;20.83;;
44446;SDS011;30152;52.066;5.358;2023-06-22T15:29:11;25.45;;;19.50;;
44446;SDS011;30152;52.066;5.358;2023-06-22T15:31:36;25.08;;;20.15;;
44446;SDS011;30152;52.066;5.358;2023-06-22T15:34:02;30.33;;;20.45;;
44446;SDS011;30152;52.066;5.358;2023-06-22T15:36:28;30.88;;;22.73;;
44446;SDS011;30152;52.066;5.358;2023-06-22T15:38:54;31.40;;;21.92;;
44446;SDS011;30152;52.066;5.358;2023-06-22T15:41:19;30.55;;;22.70;;
44446;SDS011;30152;52.066;5.358;2023-06-22T15:43:45;29.60;;;21.50;;
44446;SDS011;30152;52.066;5.358;2023-06-22T15:46:10;29.10;;;21.85;;
44446;SDS011;30152;52.066;5.358;2023-06-22T15:48:36;31.38;;;22.38;;
44446;SDS011;30152;52.066;5.358;2023-06-22T15:51:01;31.42;;;23.85;;
44446;SDS011;30152;52.066;5.358;2023-06-22T15:53:27;33.78;;;23.75;;
44446;SDS011;30152;52.066;5.358;2023-06-22T15:55:52;29.27;;;23.02;;
44446;SDS011;30152;52.066;5.358;2023-06-22T15:58:19;31.75;;;23.42;;
44446;SDS011;30152;52.066;5.358;2023-06-22T16:00:45;31.83;;;22.55;;
44446;SDS011;30152;52.066;5.358;2023-06-22T16:03:13;33.28;;;23.65;;
44446;SDS011;30152;52.066;5.358;2023-06-22T16:05:39;33.25;;;24.52;;
44446;SDS011;30152;52.066;5.358;2023-06-22T16:08:08;34.30;;;24.70;;
44446;SDS011;30152;52.066;5.358;2023-06-22T16:10:36;35.25;;;24.42;;
44446;SDS011;30152;52.066;5.358;2023-06-22T16:13:02;39.42;;;27.35;;
44446;SDS011;30152;52.066;5.358;2023-06-22T16:15:28;34.17;;;26.25;;
44446;SDS011;30152;52.066;5.358;2023-06-22T16:17:53;34.03;;;26.20;;
44446;SDS011;30152;52.066;5.358;2023-06-22T16:20:20;37.60;;;26.95;;
44446;SDS011;30152;52.066;5.358;2023-06-22T16:22:46;35.95;;;27.08;;
44446;SDS011;30152;52.066;5.358;2023-06-22T16:25:12;36.75;;;26.48;;
44446;SDS011;30152;52.066;5.358;2023-06-22T16:27:38;37.58;;;26.45;;
44446;SDS011;30152;52.066;5.358;2023-06-22T16:30:04;42.72;;;27.75;;
44446;SDS011;30152;52.066;5.358;2023-06-22T16:32:33;44.47;;;28.35;;
44446;SDS011;30152;52.066;5.358;2023-06-22T16:34:59;38.92;;;29.20;;
44446;SDS011;30152;52.066;5.358;2023-06-22T16:37:25;36.95;;;27.38;;
44446;SDS011;30152;52.066;5.358;2023-06-22T16:39:50;39.13;;;28.75;;
44446;SDS011;30152;52.066;5.358;2023-06-22T16:42:16;40.70;;;28.80;;
44446;SDS011;30152;52.066;5.358;2023-06-22T16:44:44;41.08;;;29.40;;
44446;SDS011;30152;52.066;5.358;2023-06-22T16:47:10;35.70;;;27.80;;
44446;SDS011;30152;52.066;5.358;2023-06-22T16:49:36;41.53;;;28.45;;
44446;SDS011;30152;52.066;5.358;2023-06-22T16:52:02;41.70;;;30.80;;
44446;SDS011;30152;52.066;5.358;2023-06-22T16:54:28;44.25;;;31.17;;
44446;SDS011;30152;52.066;5.358;2023-06-22T16:56:54;37.38;;;28.33;;
44446;SDS011;30152;52.066;5.358;2023-06-22T16:59:23;38.08;;;28.42;;
44446;SDS011;30152;52.066;5.358;2023-06-22T17:01:51;40.58;;;28.55;;
44446;SDS011;30152;52.066;5.358;2023-06-22T17:04:20;34.25;;;25.08;;
44446;SDS011;30152;52.066;5.358;2023-06-22T17:06:49;31.80;;;26.00;;
44446;SDS011;30152;52.066;5.358;2023-06-22T17:09:20;35.67;;;26.33;;
44446;SDS011;30152;52.066;5.358;2023-06-22T17:11:49;32.97;;;25.00;;
44446;SDS011;30152;52.066;5.358;2023-06-22T17:14:17;33.47;;;24.40;;
44446;SDS011;30152;52.066;5.358;2023-06-22T17:16:43;34.67;;;24.70;;
44446;SDS011;30152;52.066;5.358;2023-06-22T17:19:11;29.00;;;23.42;;
44446;SDS011;30152;52.066;5.358;2023-06-22T17:21:38;33.90;;;24.48;;
44446;SDS011;30152;52.066;5.358;2023-06-22T17:24:04;31.33;;;23.98;;
44446;SDS011;30152;52.066;5.358;2023-06-22T17:26:30;35.08;;;24.50;;
44446;SDS011;30152;52.066;5.358;2023-06-22T17:28:56;29.60;;;21.88;;
44446;SDS011;30152;52.066;5.358;2023-06-22T17:31:30;32.35;;;23.85;;
44446;SDS011;30152;52.066;5.358;2023-06-22T17:34:06;31.35;;;23.40;;
44446;SDS011;30152;52.066;5.358;2023-06-22T17:36:32;32.38;;;23.90;;
44446;SDS011;30152;52.066;5.358;2023-06-22T17:39:04;33.63;;;25.05;;
44446;SDS011;30152;52.066;5.358;2023-06-22T17:41:32;35.50;;;26.23;;
44446;SDS011;30152;52.066;5.358;2023-06-22T17:43:58;38.42;;;27.58;;
44446;SDS011;30152;52.066;5.358;2023-06-22T17:46:28;38.40;;;28.00;;
44446;SDS011;30152;52.066;5.358;2023-06-22T17:48:59;36.27;;;27.57;;
44446;SDS011;30152;52.066;5.358;2023-06-22T17:51:24;41.83;;;31.08;;
44446;SDS011;30152;52.066;5.358;2023-06-22T17:53:50;48.65;;;31.50;;
44446;SDS011;30152;52.066;5.358;2023-06-22T17:56:16;46.00;;;33.67;;
44446;SDS011;30152;52.066;5.358;2023-06-22T17:58:50;49.03;;;35.70;;
44446;SDS011;30152;52.066;5.358;2023-06-22T18:01:16;51.37;;;36.43;;
44446;SDS011;30152;52.066;5.358;2023-06-22T18:03:52;54.75;;;35.45;;
44446;SDS011;30152;52.066;5.358;2023-06-22T18:06:18;43.70;;;32.85;;
44446;SDS011;30152;52.066;5.358;2023-06-22T18:08:44;48.45;;;34.78;;
44446;SDS011;30152;52.066;5.358;2023-06-22T18:11:11;46.35;;;34.60;;
44446;SDS011;30152;52.066;5.358;2023-06-22T18:13:38;47.10;;;34.00;;
44446;SDS011;30152;52.066;5.358;2023-06-22T18:16:05;50.05;;;36.05;;
44446;SDS011;30152;52.066;5.358;2023-06-22T18:18:32;47.17;;;36.50;;
44446;SDS011;30152;52.066;5.358;2023-06-22T18:21:00;50.55;;;35.63;;
44446;SDS011;30152;52.066;5.358;2023-06-22T18:23:28;48.30;;;36.28;;
44446;SDS011;30152;52.066;5.358;2023-06-22T18:26:01;52.55;;;37.28;;
44446;SDS011;30152;52.066;5.358;2023-06-22T18:28:30;52.58;;;36.65;;
44446;SDS011;30152;52.066;5.358;2023-06-22T18:30:57;51.42;;;36.03;;
44446;SDS011;30152;52.066;5.358;2023-06-22T18:33:23;45.33;;;35.05;;
44446;SDS011;30152;52.066;5.358;2023-06-22T18:35:49;50.25;;;34.08;;
44446;SDS011;30152;52.066;5.358;2023-06-22T18:38:16;50.70;;;34.55;;
44446;SDS011;30152;52.066;5.358;2023-06-22T18:40:49;45.88;;;30.88;;
44446;SDS011;30152;52.066;5.358;2023-06-22T18:43:24;43.25;;;30.02;;
44446;SDS011;30152;52.066;5.358;2023-06-22T18:45:49;38.00;;;27.67;;
44446;SDS011;30152;52.066;5.358;2023-06-22T18:48:24;37.72;;;26.60;;
44446;SDS011;30152;52.066;5.358;2023-06-22T18:50:50;38.10;;;26.55;;
44446;SDS011;30152;52.066;5.358;2023-06-22T18:53:16;37.30;;;27.48;;
44446;SDS011;30152;52.066;5.358;2023-06-22T18:55:51;39.50;;;26.17;;
44446;SDS011;30152;52.066;5.358;2023-06-22T18:58:26;38.17;;;25.27;;
44446;SDS011;30152;52.066;5.358;2023-06-22T19:00:52;36.28;;;24.63;;
44446;SDS011;30152;52.066;5.358;2023-06-22T19:03:24;39.67;;;23.35;;
44446;SDS011;30152;52.066;5.358;2023-06-22T19:05:57;33.45;;;22.48;;
44446;SDS011;30152;52.066;5.358;2023-06-22T19:08:23;37.22;;;22.33;;
44446;SDS011;30152;52.066;5.358;2023-06-22T19:10:49;35.22;;;23.33;;
44446;SDS011;30152;52.066;5.358;2023-06-22T19:13:26;35.22;;;21.65;;
44446;SDS011;30152;52.066;5.358;2023-06-22T19:18:22;33.53;;;20.88;;
44446;SDS011;30152;52.066;5.358;2023-06-22T19:20:51;28.77;;;20.25;;
44446;SDS011;30152;52.066;5.358;2023-06-22T19:25:54;30.35;;;19.95;;
44446;SDS011;30152;52.066;5.358;2023-06-22T19:28:23;32.05;;;21.15;;
44446;SDS011;30152;52.066;5.358;2023-06-22T19:30:57;32.65;;;22.10;;
44446;SDS011;30152;52.066;5.358;2023-06-22T19:33:24;37.67;;;23.67;;
44446;SDS011;30152;52.066;5.358;2023-06-22T19:35:50;34.53;;;22.45;;
44446;SDS011;30152;52.066;5.358;2023-06-22T19:38:17;31.65;;;23.17;;
44446;SDS011;30152;52.066;5.358;2023-06-22T19:40:43;35.03;;;22.52;;
44446;SDS011;30152;52.066;5.358;2023-06-22T19:43:10;28.55;;;18.50;;
44446;SDS011;30152;52.066;5.358;2023-06-22T19:45:40;23.10;;;15.57;;
44446;SDS011;30152;52.066;5.358;2023-06-22T19:48:10;22.05;;;13.98;;
44446;SDS011;30152;52.066;5.358;2023-06-22T19:50:37;20.50;;;12.80;;
44446;SDS011;30152;52.066;5.358;2023-06-22T19:53:13;20.27;;;12.93;;
44446;SDS011;30152;52.066;5.358;2023-06-22T19:55:40;19.95;;;13.90;;
44446;SDS011;30152;52.066;5.358;2023-06-22T19:58:13;18.93;;;12.73;;
44446;SDS011;30152;52.066;5.358;2023-06-22T20:00:40;22.25;;;13.63;;
44446;SDS011;30152;52.066;5.358;2023-06-22T20:03:09;21.73;;;13.55;;
44446;SDS011;30152;52.066;5.358;2023-06-22T20:05:43;21.55;;;13.68;;
44446;SDS011;30152;52.066;5.358;2023-06-22T20:08:16;23.02;;;13.15;;
44446;SDS011;30152;52.066;5.358;2023-06-22T20:10:42;22.77;;;13.35;;
44446;SDS011;30152;52.066;5.358;2023-06-22T20:13:15;20.98;;;11.45;;
44446;SDS011;30152;52.066;5.358;2023-06-22T20:15:47;19.65;;;11.00;;
44446;SDS011;30152;52.066;5.358;2023-06-22T20:18:14;15.68;;;10.52;;
44446;SDS011;30152;52.066;5.358;2023-06-22T20:23:10;17.75;;;9.57;;
44446;SDS011;30152;52.066;5.358;2023-06-22T20:25:38;14.55;;;9.13;;
44446;SDS011;30152;52.066;5.358;2023-06-22T20:28:09;14.35;;;7.95;;
44446;SDS011;30152;52.066;5.358;2023-06-22T20:30:37;13.25;;;7.18;;
44446;SDS011;30152;52.066;5.358;2023-06-22T20:33:04;14.23;;;6.80;;
44446;SDS011;30152;52.066;5.358;2023-06-22T20:35:38;11.93;;;7.43;;
44446;SDS011;30152;52.066;5.358;2023-06-22T20:38:03;10.50;;;6.68;;
44446;SDS011;30152;52.066;5.358;2023-06-22T20:40:30;11.38;;;6.63;;
44446;SDS011;30152;52.066;5.358;2023-06-22T20:42:56;10.52;;;6.65;;
44446;SDS011;30152;52.066;5.358;2023-06-22T20:45:23;11.93;;;6.80;;
44446;SDS011;30152;52.066;5.358;2023-06-22T20:47:50;10.30;;;6.97;;
44446;SDS011;30152;52.066;5.358;2023-06-22T20:50:21;11.35;;;7.25;;
44446;SDS011;30152;52.066;5.358;2023-06-22T20:55:22;14.10;;;7.95;;